Time;durP1;ratioP1;P1;durP2;ratioP2;P2;SDS_P1;SDS_P2;PMS_P1;PMS_P2;Temp;Humidity;BMP_temperature;BMP_pressure;BME280_temperature;BME280_humidity;BME280_pressure;Samples;Min_cycle;Max_cycle;Signal;HPM_P1;HPM_P2
2023/07/29 00:02:11;;;;;;;2.23;1.20;;;;;;;24.56;46.07;98689.50;5033113;28;20170;-84
2023/07/29 00:04:37;;;;;;;3.67;1.70;;;;;;;24.51;46.24;98684.69;5035207;28;20229;-84
2023/07/29 00:07:04;;;;;;;4.83;1.80;;;;;;;24.46;45.86;98687.06;5036959;28;20206;-84
2023/07/29 00:09:30;;;;;;;2.03;1.17;;;;;;;24.38;45.67;98689.81;5037551;28;20253;-84
2023/07/29 00:11:57;;;;;;;3.27;1.60;;;;;;;24.26;45.12;98686.72;5036942;28;20175;-84
2023/07/29 00:14:24;;;;;;;2.47;1.30;;;;;;;24.15;46.07;98686.28;5036932;28;20261;-84
2023/07/29 00:16:51;;;;;;;4.33;1.50;;;;;;;24.01;46.37;98693.19;5036924;28;20174;-84
2023/07/29 00:19:16;;;;;;;3.23;1.40;;;;;;;23.82;46.92;98694.47;5037109;28;20166;-84
2023/07/29 00:21:43;;;;;;;6.20;1.70;;;;;;;23.57;47.29;98690.25;5036803;28;20204;-84
2023/07/29 00:24:08;;;;;;;4.53;1.60;;;;;;;23.32;47.46;98696.66;5037300;28;20174;-85
2023/07/29 00:26:34;;;;;;;3.23;1.47;;;;;;;23.11;48.24;98693.72;5035749;28;20193;-84
2023/07/29 00:29:00;;;;;;;2.90;1.20;;;;;;;22.90;48.57;98693.41;5036626;28;20253;-84
2023/07/29 00:31:27;;;;;;;5.13;1.70;;;;;;;22.60;49.00;98690.38;5035670;28;20170;-84
2023/07/29 00:33:54;;;;;;;2.57;1.30;;;;;;;22.63;49.57;98698.09;5035607;28;20252;-84
2023/07/29 00:36:20;;;;;;;2.10;1.00;;;;;;;22.46;50.47;98699.06;5036754;28;20257;-84
2023/07/29 00:38:45;;;;;;;5.10;1.50;;;;;;;22.14;51.12;98692.84;5035404;28;20203;-84
2023/07/29 00:41:14;;;;;;;6.43;1.40;;;;;;;22.23;51.16;98689.19;5036338;28;20236;-84
2023/07/29 00:43:40;;;;;;;6.93;1.60;;;;;;;22.55;50.54;98684.72;5036588;28;20571;-84
2023/07/29 00:46:08;;;;;;;3.93;1.43;;;;;;;22.90;49.41;98675.53;5036340;28;20615;-84
2023/07/29 00:48:34;;;;;;;3.97;1.40;;;;;;;23.17;49.25;98682.31;5035331;28;20175;-84
2023/07/29 00:50:59;;;;;;;2.33;1.20;;;;;;;23.32;49.04;98669.94;5034931;28;20537;-84
2023/07/29 00:53:26;;;;;;;3.00;1.10;;;;;;;23.33;nan;98671.56;5035215;28;20182;-84
2023/07/29 00:55:53;;;;;;;2.60;1.37;;;;;;;23.42;48.40;98670.59;5035079;28;20220;-84
2023/07/29 00:58:19;;;;;;;4.50;1.30;;;;;;;23.37;48.33;98672.94;5036590;28;20194;-84
2023/07/29 01:00:45;;;;;;;2.20;1.13;;;;;;;23.45;48.00;98674.75;5035905;28;20606;-84
2023/07/29 01:03:12;;;;;;;7.90;1.17;;;;;;;23.42;47.87;98667.91;5036064;28;20277;-84
2023/07/29 01:06:12;;;;;;;3.83;1.53;;;;;;;23.41;48.28;98671.56;5035850;28;20257;-84
2023/07/29 01:08:59;;;;;;;3.30;1.50;;;;;;;23.47;48.22;98672.72;5030941;28;20685;-84
2023/07/29 01:12:01;;;;;;;2.90;1.23;;;;;;;23.48;48.33;98661.03;5036431;28;20232;-84
2023/07/29 01:14:32;;;;;;;2.77;1.23;;;;;;;23.45;48.01;98658.69;5036396;28;20597;-84
2023/07/29 01:17:03;;;;;;;3.40;1.57;;;;;;;23.39;47.98;98664.72;5034606;28;20663;-84
2023/07/29 01:19:50;;;;;;;2.80;1.40;;;;;;;23.32;48.67;98674.44;5035799;28;20166;-84
2023/07/29 01:22:21;;;;;;;3.37;1.27;;;;;;;23.25;48.93;98679.63;5034722;28;20163;-84
2023/07/29 01:24:46;;;;;;;2.33;1.20;;;;;;;23.22;49.09;98666.59;5036148;28;20167;-84
2023/07/29 01:27:13;;;;;;;3.10;1.30;;;;;;;23.18;49.70;98674.13;5035593;28;20240;-84
2023/07/29 01:29:38;;;;;;;4.83;1.40;;;;;;;23.26;49.64;98675.94;5035972;28;20181;-84
2023/07/29 01:32:14;;;;;;;3.43;1.70;;;;;;;23.22;49.21;98672.78;5035519;28;20183;-84
2023/07/29 01:34:47;;;;;;;3.43;1.33;;;;;;;23.15;49.78;98676.31;5034527;28;20190;-84
2023/07/29 01:37:20;;;;;;;4.10;2.07;;;;;;;23.12;49.75;98679.31;5035884;28;20609;-84
2023/07/29 01:39:50;;;;;;;3.53;1.17;;;;;;;23.13;49.60;98683.66;5035946;28;20189;-84
2023/07/29 01:42:17;;;;;;;3.07;1.40;;;;;;;23.15;50.10;98684.31;5035675;28;20251;-84
2023/07/29 01:44:42;;;;;;;4.60;1.57;;;;;;;23.14;49.95;98688.84;5034259;28;20208;-84
2023/07/29 01:47:08;;;;;;;2.83;1.67;;;;;;;23.19;50.03;98681.13;5034763;28;20171;-84
2023/07/29 01:49:35;;;;;;;4.67;1.60;;;;;;;23.19;49.30;98683.00;5035193;28;20643;-84
2023/07/29 01:52:02;;;;;;;2.83;1.57;;;;;;;23.10;49.57;98689.34;5035181;28;20178;-84
2023/07/29 01:54:28;;;;;;;3.17;1.30;;;;;;;23.03;49.72;98691.88;5034927;28;20182;-84
2023/07/29 01:56:54;;;;;;;3.97;1.70;;;;;;;22.97;50.22;98691.72;5035497;28;20225;-84
2023/07/29 01:59:20;;;;;;;5.17;1.40;;;;;;;22.91;50.09;98692.38;5034039;28;20220;-84
2023/07/29 02:01:46;;;;;;;3.90;1.90;;;;;;;22.84;50.99;98683.38;5034880;28;20670;-84
2023/07/29 02:04:12;;;;;;;2.83;1.60;;;;;;;22.78;50.87;98678.72;5033896;28;20671;-84
2023/07/29 02:06:37;;;;;;;2.57;1.37;;;;;;;22.77;50.88;98677.06;5034784;28;20333;-84
2023/07/29 02:09:04;;;;;;;3.77;1.87;;;;;;;22.77;51.43;98682.41;5033820;28;20174;-84
2023/07/29 02:11:31;;;;;;;2.93;1.60;;;;;;;22.72;51.28;98677.53;5034831;28;20185;-84
2023/07/29 02:13:58;;;;;;;4.63;1.97;;;;;;;22.71;51.59;98683.91;5034702;28;20174;-84
2023/07/29 02:16:23;;;;;;;3.00;1.50;;;;;;;22.70;51.68;98674.22;5034508;28;20227;-84
2023/07/29 02:18:49;;;;;;;4.07;1.70;;;;;;;22.67;51.82;98687.91;5033594;28;20289;-84
2023/07/29 02:21:16;;;;;;;3.40;1.67;;;;;;;22.67;51.56;98684.41;5033649;28;20187;-84
2023/07/29 02:23:42;;;;;;;2.80;1.77;;;;;;;22.68;51.48;98691.41;5034484;28;20205;-84
2023/07/29 02:26:07;;;;;;;2.27;1.30;;;;;;;22.65;51.81;98692.59;5033356;28;20637;-84
2023/07/29 02:28:34;;;;;;;3.17;1.60;;;;;;;22.63;51.73;98703.44;5034524;28;20174;-84
2023/07/29 02:31:22;;;;;;;3.43;2.17;;;;;;;22.61;51.83;98702.72;5034409;28;20182;-84
2023/07/29 02:33:49;;;;;;;4.17;1.50;;;;;;;22.55;52.16;98702.56;5033214;28;20171;-84
2023/07/29 02:36:15;;;;;;;4.20;1.97;;;;;;;22.45;52.25;98696.56;5030704;28;20205;-84
2023/07/29 02:38:42;;;;;;;3.27;1.50;;;;;;;22.38;52.54;98693.69;5014406;28;20676;-84
2023/07/29 02:41:12;;;;;;;5.00;2.03;;;;;;;22.34;52.59;98695.06;5013472;28;20532;-84
2023/07/29 02:43:40;;;;;;;3.30;1.60;;;;;;;22.31;52.91;98699.88;5014913;28;20205;-84
2023/07/29 02:46:06;;;;;;;4.83;2.40;;;;;;;22.27;53.28;98701.22;5014636;28;20250;-84
2023/07/29 02:48:31;;;;;;;6.93;2.20;;;;;;;22.18;53.19;98703.03;5014284;28;20268;-84
2023/07/29 02:50:57;;;;;;;5.37;2.27;;;;;;;22.14;53.25;98712.38;5014825;28;20262;-84
2023/07/29 02:53:24;;;;;;;3.70;2.23;;;;;;;22.12;53.42;98719.69;5014565;28;20199;-84
2023/07/29 02:55:49;;;;;;;3.83;2.30;;;;;;;22.10;53.66;98719.03;5014711;28;20186;-84
2023/07/29 02:58:16;;;;;;;4.13;2.43;;;;;;;22.09;53.39;98722.69;5014100;28;20203;-84
2023/07/29 03:00:43;;;;;;;4.30;2.47;;;;;;;22.08;53.38;98725.53;5014310;28;20205;-84
2023/07/29 03:03:09;;;;;;;4.60;2.47;;;;;;;22.00;53.72;98732.53;5024656;28;20184;-84
2023/07/29 03:05:35;;;;;;;4.97;2.77;;;;;;;21.98;53.42;98736.34;5032815;28;20235;-84
2023/07/29 03:08:02;;;;;;;5.40;2.37;;;;;;;21.93;53.94;98739.50;5032815;28;20537;-84
2023/07/29 03:10:27;;;;;;;4.10;2.50;;;;;;;21.87;54.05;98737.47;5033728;28;20175;-84
2023/07/29 03:12:57;;;;;;;4.43;2.53;;;;;;;21.86;53.85;98733.13;5033649;28;20201;-84
2023/07/29 03:15:25;;;;;;;5.57;2.93;;;;;;;21.84;54.26;98736.94;5034106;28;20261;-84
2023/07/29 03:17:54;;;;;;;7.67;2.83;;;;;;;21.83;53.85;98733.41;5033529;28;20205;-84
2023/07/29 03:20:20;;;;;;;5.07;3.10;;;;;;;21.83;54.09;98733.41;5033470;28;20273;-84
2023/07/29 03:22:46;;;;;;;4.30;2.37;;;;;;;21.87;53.86;98737.47;5033489;28;20643;-84
2023/07/29 03:25:13;;;;;;;4.70;2.40;;;;;;;21.85;53.73;98738.63;5033696;28;20196;-84
2023/07/29 03:27:42;;;;;;;3.90;2.33;;;;;;;21.75;54.54;98732.56;5033444;28;20179;-84
2023/07/29 03:30:08;;;;;;;4.80;2.33;;;;;;;21.68;54.77;98735.03;5032447;28;20186;-84
2023/07/29 03:32:34;;;;;;;7.33;2.70;;;;;;;21.66;54.65;98730.84;5033552;28;20569;-84
2023/07/29 03:35:00;;;;;;;4.77;2.73;;;;;;;21.71;54.58;98734.72;5033399;28;20642;-84
2023/07/29 03:37:26;;;;;;;3.40;2.23;;;;;;;21.65;54.65;98730.00;5033243;28;20735;-84
2023/07/29 03:39:52;;;;;;;4.40;2.77;;;;;;;21.62;54.93;98725.00;5032705;28;20220;-84
2023/07/29 03:42:18;;;;;;;7.53;3.57;;;;;;;21.66;54.84;98726.38;5032333;28;20202;-84
2023/07/29 03:44:43;;;;;;;7.07;2.73;;;;;;;21.65;54.76;98732.69;5033800;28;20182;-84
2023/07/29 03:47:09;;;;;;;5.77;3.37;;;;;;;21.65;54.95;98730.00;5033279;28;20185;-84
2023/07/29 03:49:34;;;;;;;5.07;2.83;;;;;;;21.59;55.19;98736.00;5033218;28;20664;-84
2023/07/29 03:52:01;;;;;;;5.60;3.03;;;;;;;21.63;55.06;98736.50;5033208;28;20182;-84
2023/07/29 03:54:27;;;;;;;6.37;3.03;;;;;;;21.66;54.99;98730.84;5032039;28;20187;-84
2023/07/29 03:56:53;;;;;;;4.97;2.37;;;;;;;21.67;55.08;98743.22;5032789;28;20344;-84
2023/07/29 03:59:18;;;;;;;5.53;2.80;;;;;;;21.67;55.29;98751.22;5033323;28;20181;-84
2023/07/29 04:01:45;;;;;;;6.47;2.73;;;;;;;21.74;54.97;98752.22;5030908;28;20190;-84
2023/07/29 04:04:10;;;;;;;6.60;3.90;;;;;;;21.70;54.99;98762.38;5012329;28;20648;-84
2023/07/29 04:06:37;;;;;;;10.27;3.10;;;;;;;21.68;55.19;98758.19;5013295;28;20179;-84
2023/07/29 04:09:02;;;;;;;4.47;2.63;;;;;;;21.77;54.69;98765.25;5013537;28;20175;-84
2023/07/29 04:11:29;;;;;;;4.77;3.17;;;;;;;21.73;55.34;98764.72;5031072;28;20186;-84
2023/07/29 04:13:56;;;;;;;7.37;3.47;;;;;;;21.72;55.69;98764.91;5032037;28;20200;-84
2023/07/29 04:16:22;;;;;;;5.60;2.70;;;;;;;21.68;56.19;98763.53;5032005;28;20178;-84
2023/07/29 04:18:47;;;;;;;3.27;2.20;;;;;;;21.74;56.10;98770.91;5032842;28;20198;-84
2023/07/29 04:21:13;;;;;;;4.50;2.77;;;;;;;21.84;55.60;98768.94;5031935;28;20183;-84
2023/07/29 04:23:40;;;;;;;6.33;3.23;;;;;;;21.87;55.61;98768.66;5031920;28;20694;-84
2023/07/29 04:26:05;;;;;;;4.57;2.57;;;;;;;21.95;55.79;98777.56;5031899;28;20186;-84
2023/07/29 04:28:32;;;;;;;5.17;2.80;;;;;;;22.03;55.50;98774.06;5033381;28;20175;-84
2023/07/29 04:30:57;;;;;;;5.00;3.27;;;;;;;22.09;55.61;98775.25;5032791;28;20543;-84
2023/07/29 04:33:29;;;;;;;6.07;2.77;;;;;;;22.17;55.30;98783.28;5031849;28;20179;-84
2023/07/29 04:35:55;;;;;;;4.73;2.83;;;;;;;22.24;55.15;98774.47;5032908;28;20158;-84
2023/07/29 04:38:21;;;;;;;5.17;3.23;;;;;;;22.36;54.81;98775.81;5033195;28;20210;-84
2023/07/29 04:40:49;;;;;;;4.33;2.90;;;;;;;22.49;54.87;98781.53;5031751;28;20240;-84
2023/07/29 04:43:16;;;;;;;5.87;2.70;;;;;;;22.57;54.81;98781.53;5031681;28;20239;-84
2023/07/29 04:45:59;;;;;;;5.70;2.90;;;;;;;22.62;55.01;98776.56;5032567;28;20177;-84
2023/07/29 04:48:24;;;;;;;4.37;2.83;;;;;;;22.77;54.68;98782.13;5031754;28;20171;-84
2023/07/29 04:50:59;;;;;;;7.13;2.50;;;;;;;22.89;54.53;98780.78;5033933;28;20171;-84
2023/07/29 04:53:26;;;;;;;5.90;2.77;;;;;;;23.07;54.26;98777.91;5036046;28;20241;-84
2023/07/29 04:55:51;;;;;;;4.47;2.50;;;;;;;23.18;54.40;98775.75;5036474;28;20174;-84
2023/07/29 04:58:17;;;;;;;4.13;2.17;;;;;;;23.37;53.98;98769.25;5035390;28;20671;-84
2023/07/29 05:00:47;;;;;;;5.30;2.23;;;;;;;23.66;53.00;98774.00;5036263;28;20261;-84
2023/07/29 05:03:14;;;;;;;6.23;2.40;;;;;;;24.04;52.70;98778.53;5035977;28;20190;-84
2023/07/29 05:05:39;;;;;;;7.50;2.30;;;;;;;24.60;51.16;98773.91;5035031;28;20182;-84
2023/07/29 05:08:04;;;;;;;3.27;1.70;;;;;;;25.18;49.24;98778.69;5035997;28;20185;-84
2023/07/29 05:10:31;;;;;;;5.23;1.97;;;;;;;25.55;48.27;98786.72;5035569;28;20272;-84
2023/07/29 05:12:58;;;;;;;5.03;1.97;;;;;;;25.27;49.13;98785.63;5035915;28;20178;-83
2023/07/29 05:15:23;;;;;;;5.53;2.00;;;;;;;25.40;48.73;98783.97;5035723;28;20190;-84
2023/07/29 05:17:48;;;;;;;5.70;2.83;;;;;;;25.40;48.79;98788.50;5035770;28;20202;-84
2023/07/29 05:20:14;;;;;;;4.37;2.30;;;;;;;25.41;49.22;98791.03;5034784;28;20277;-84
2023/07/29 05:22:40;;;;;;;5.40;2.20;;;;;;;25.46;48.94;98794.03;5034756;28;20197;-84
2023/07/29 05:25:06;;;;;;;3.17;1.67;;;;;;;25.59;48.90;98793.38;5036204;28;20174;-84
2023/07/29 05:27:33;;;;;;;3.13;1.70;;;;;;;25.93;47.87;98800.88;5036136;28;20240;-84
2023/07/29 05:30:00;;;;;;;6.37;1.80;;;;;;;26.24;47.15;98791.63;5035540;28;20178;-84
2023/07/29 05:32:27;;;;;;;3.80;2.00;;;;;;;26.56;46.38;98787.66;5035793;28;20178;-82
2023/07/29 05:34:53;;;;;;;3.93;1.70;;;;;;;27.10;45.22;98800.59;5036009;28;20612;-82
2023/07/29 05:37:18;;;;;;;6.60;1.90;;;;;;;27.66;43.59;98788.03;5035392;28;20201;-82
2023/07/29 05:39:43;;;;;;;3.17;1.90;;;;;;;28.02;42.25;98791.38;5035510;28;20213;-82
2023/07/29 05:42:10;;;;;;;5.72;2.08;;;;;;;28.25;42.09;98791.88;5035067;28;20183;-82
2023/07/29 05:44:36;;;;;;;3.15;1.70;;;;;;;28.55;40.40;98787.03;5035182;28;20170;-82
2023/07/29 05:47:02;;;;;;;6.20;3.22;;;;;;;28.72;40.18;98782.94;5035511;28;20171;-83
2023/07/29 05:49:28;;;;;;;4.88;1.38;;;;;;;28.69;39.83;98790.63;5035727;28;20171;-84
2023/07/29 05:51:54;;;;;;;2.63;1.42;;;;;;;28.47;39.74;98795.28;5034233;28;20236;-84
2023/07/29 05:54:21;;;;;;;2.33;1.25;;;;;;;28.34;40.31;98793.38;5035284;28;20265;-84
2023/07/29 05:56:48;;;;;;;2.15;1.15;;;;;;;28.47;40.38;98785.34;5035306;28;20178;-84
2023/07/29 05:59:13;;;;;;;2.08;0.95;;;;;;;28.53;40.48;98792.63;5033952;28;20210;-84
2023/07/29 06:01:40;;;;;;;2.67;1.27;;;;;;;28.44;40.12;98801.09;5033295;28;20561;-84
2023/07/29 06:04:05;;;;;;;2.25;1.05;;;;;;;28.44;40.45;98793.81;5033865;28;20186;-84
2023/07/29 06:06:31;;;;;;;2.47;1.33;;;;;;;28.56;40.04;98797.59;5033926;28;20170;-84
2023/07/29 06:08:58;;;;;;;2.40;1.10;;;;;;;28.55;39.68;98793.25;5033889;28;20178;-84
2023/07/29 06:11:24;;;;;;;2.58;1.10;;;;;;;28.54;40.35;98788.88;5034733;28;20629;-85
2023/07/29 06:13:51;;;;;;;2.35;1.10;;;;;;;28.42;39.87;98790.50;5034618;28;20542;-85
2023/07/29 06:16:16;;;;;;;3.50;1.35;;;;;;;28.57;40.16;98791.16;5034774;28;20189;-85
2023/07/29 06:18:42;;;;;;;2.92;1.13;;;;;;;28.69;38.86;98796.00;5033638;28;20206;-85
2023/07/29 06:21:12;;;;;;;7.35;1.50;;;;;;;28.75;38.36;98787.13;5034609;28;20620;-85
2023/07/29 06:23:38;;;;;;;2.22;1.02;;;;;;;28.77;38.73;98795.81;5034871;28;20500;-85
2023/07/29 06:26:06;;;;;;;2.35;1.05;;;;;;;28.88;38.84;98789.84;5016714;28;20198;-85
2023/07/29 06:28:34;;;;;;;3.72;1.70;;;;;;;29.02;37.77;98794.19;5028015;28;20269;-85
2023/07/29 06:31:01;;;;;;;2.13;1.00;;;;;;;29.00;37.40;98793.56;5023130;28;20191;-85
2023/07/29 06:33:28;;;;;;;2.15;1.00;;;;;;;29.20;37.30;98791.69;5013694;28;20282;-85
2023/07/29 06:35:54;;;;;;;3.92;1.20;;;;;;;29.42;36.60;98795.91;5014567;28;20185;-85
2023/07/29 06:38:22;;;;;;;3.53;1.40;;;;;;;29.61;36.52;98794.22;5016070;28;20628;-85
2023/07/29 06:40:49;;;;;;;2.17;1.10;;;;;;;29.81;36.04;98787.75;5014443;28;20182;-86
2023/07/29 06:43:16;;;;;;;3.88;1.42;;;;;;;30.04;35.46;98789.13;5014951;28;20179;-86
2023/07/29 06:45:42;;;;;;;2.42;1.20;;;;;;;30.25;35.44;98784.28;5016896;28;20270;-85
2023/07/29 06:48:09;;;;;;;5.93;1.45;;;;;;;30.49;35.57;98788.16;5034113;28;20206;-85
2023/07/29 06:50:36;;;;;;;2.20;1.10;;;;;;;30.69;35.22;98794.28;5025223;28;20244;-85
2023/07/29 06:53:03;;;;;;;2.72;1.33;;;;;;;30.92;34.20;98796.47;5013228;28;20172;-86
2023/07/29 06:55:28;;;;;;;3.08;1.35;;;;;;;31.13;32.99;98796.09;5016324;28;20179;-86
2023/07/29 06:57:54;;;;;;;7.50;1.38;;;;;;;31.39;33.58;98792.34;5032785;28;20202;-85
2023/07/29 07:00:19;;;;;;;1.83;1.10;;;;;;;31.59;32.20;98785.72;5031780;28;20194;-86
2023/07/29 07:02:44;;;;;;;9.43;1.13;;;;;;;31.85;33.38;98790.03;5032805;28;20193;-85
2023/07/29 07:05:10;;;;;;;3.45;1.52;;;;;;;32.06;32.09;98776.06;5032781;28;20166;-86
2023/07/29 07:07:37;;;;;;;2.95;1.30;;;;;;;32.18;31.86;98785.09;5033640;28;20605;-86
2023/07/29 07:10:04;;;;;;;4.60;1.60;;;;;;;32.36;32.29;98780.72;5034016;28;20634;-87
2023/07/29 07:12:31;;;;;;;2.40;1.20;;;;;;;32.50;31.52;98785.72;5032888;28;20206;-86
2023/07/29 07:14:57;;;;;;;2.75;1.60;;;;;;;32.77;30.81;98775.34;5030874;28;20251;-86
2023/07/29 07:17:22;;;;;;;2.90;1.23;;;;;;;32.88;30.33;98776.44;5032075;28;20209;-86
2023/07/29 07:19:48;;;;;;;2.00;1.13;;;;;;;33.03;30.70;98772.22;5033041;28;20244;-87
2023/07/29 07:22:13;;;;;;;2.70;1.20;;;;;;;33.21;31.42;98768.63;5032391;28;20616;-86
2023/07/29 07:24:39;;;;;;;2.70;1.25;;;;;;;33.34;29.39;98771.94;5033461;28;20179;-86
2023/07/29 07:27:04;;;;;;;1.90;0.90;;;;;;;33.48;30.36;98774.44;5032497;28;20178;-86
2023/07/29 07:29:30;;;;;;;4.85;1.33;;;;;;;33.51;29.94;98768.53;5033704;28;20178;-87
2023/07/29 07:31:56;;;;;;;1.48;0.90;;;;;;;33.82;30.89;98765.47;5033348;28;20182;-87
2023/07/29 07:34:22;;;;;;;2.75;1.20;;;;;;;34.15;29.80;98764.81;5033330;28;20186;-86
2023/07/29 07:36:47;;;;;;;4.85;1.40;;;;;;;34.36;29.31;98759.56;5032367;28;20273;-86
2023/07/29 07:39:13;;;;;;;2.33;1.20;;;;;;;34.61;29.99;98761.16;5033533;28;20289;-86
2023/07/29 07:41:39;;;;;;;2.08;0.98;;;;;;;34.40;29.92;98760.75;5033531;28;20178;-86
2023/07/29 07:44:04;;;;;;;3.60;1.35;;;;;;;33.71;29.06;98763.59;5033236;28;20189;-87
2023/07/29 07:46:30;;;;;;;1.98;1.10;;;;;;;33.99;29.67;98755.50;5032031;28;20584;-87
2023/07/29 07:48:55;;;;;;;4.32;1.27;;;;;;;34.60;27.90;98754.88;5033071;28;20186;-86
2023/07/29 07:51:21;;;;;;;2.13;1.10;;;;;;;34.89;28.34;98751.03;5032239;28;20688;-88
2023/07/29 07:53:46;;;;;;;4.22;1.63;;;;;;;35.22;27.44;98747.56;5032475;28;20539;-86
2023/07/29 07:56:12;;;;;;;3.70;1.27;;;;;;;35.43;27.50;98746.75;5033654;28;20209;-86
2023/07/29 07:58:38;;;;;;;3.55;1.33;;;;;;;35.40;27.09;98747.28;5032897;28;20209;-87
2023/07/29 08:01:06;;;;;;;2.58;1.33;;;;;;;35.61;26.83;98735.63;5032080;28;20632;-87
2023/07/29 08:03:31;;;;;;;2.28;1.00;;;;;;;35.70;26.30;98736.84;5032004;28;20182;-87
2023/07/29 08:05:57;;;;;;;3.08;1.17;;;;;;;35.83;26.17;98730.19;5033031;28;20300;-86
2023/07/29 08:08:22;;;;;;;4.22;1.13;;;;;;;36.06;25.24;98734.63;5032222;28;20182;-86
2023/07/29 08:10:48;;;;;;;2.45;1.15;;;;;;;35.57;25.60;98731.75;5032025;28;20190;-87
2023/07/29 08:13:13;;;;;;;3.00;1.10;;;;;;;35.72;26.12;98729.22;5033766;28;20321;-87
2023/07/29 08:15:39;;;;;;;2.28;1.00;;;;;;;35.80;26.26;98721.72;5032765;28;20190;-88
2023/07/29 08:18:04;;;;;;;3.17;1.40;;;;;;;36.09;25.86;98724.00;5032704;28;20198;-87
2023/07/29 08:20:30;;;;;;;6.82;1.08;;;;;;;36.25;25.90;98722.28;5032906;28;20179;-87
2023/07/29 08:22:55;;;;;;;2.58;1.05;;;;;;;35.57;25.49;98720.84;5032900;28;20178;-88
2023/07/29 08:25:20;;;;;;;3.90;1.00;;;;;;;35.80;25.60;98716.25;5034429;28;20194;-87
2023/07/29 08:27:46;;;;;;;1.90;1.10;;;;;;;35.40;25.28;98722.75;5036420;28;20623;-87
2023/07/29 08:30:11;;;;;;;3.45;1.40;;;;;;;35.78;26.25;98711.84;5036713;28;20256;-87
2023/07/29 08:32:37;;;;;;;2.90;1.17;;;;;;;36.11;26.76;98710.91;5036623;28;20185;-87
2023/07/29 08:35:03;;;;;;;2.83;1.10;;;;;;;36.44;25.64;98715.41;5035939;28;20197;-87
2023/07/29 08:37:29;;;;;;;2.35;1.08;;;;;;;36.46;25.81;98707.75;5035489;28;20263;-87
2023/07/29 08:39:54;;;;;;;4.38;1.27;;;;;;;36.76;25.33;98707.28;5036748;28;20191;-87
2023/07/29 08:42:22;;;;;;;4.88;1.00;;;;;;;36.44;24.55;98709.09;5036990;28;20221;-87
2023/07/29 08:44:49;;;;;;;2.30;0.85;;;;;;;35.97;25.47;98708.81;5036932;28;20174;-87
2023/07/29 08:47:15;;;;;;;2.17;0.90;;;;;;;35.74;24.54;98705.28;5035647;28;20198;-87
2023/07/29 08:49:42;;;;;;;4.53;1.10;;;;;;;36.14;25.56;98704.16;5036182;28;20221;-87
2023/07/29 08:52:08;;;;;;;2.13;0.95;;;;;;;36.71;24.09;98699.88;5035312;28;20179;-87
2023/07/29 08:54:35;;;;;;;3.33;1.10;;;;;;;37.08;23.34;98699.09;5035996;28;20181;-87
2023/07/29 08:57:01;;;;;;;2.35;0.80;;;;;;;37.22;24.62;98694.81;5036203;28;20608;-87
2023/07/29 08:59:28;;;;;;;2.70;1.25;;;;;;;36.87;23.09;98687.97;5036093;28;20179;-88
2023/07/29 09:01:57;;;;;;;1.67;0.75;;;;;;;36.21;24.48;98691.13;5036034;28;20190;-87
2023/07/29 09:04:24;;;;;;;2.70;0.73;;;;;;;36.34;24.95;98682.53;5036306;28;20255;-87
2023/07/29 09:06:53;;;;;;;1.85;0.88;;;;;;;36.18;23.90;98678.81;5035963;28;20174;-88
2023/07/29 09:09:19;;;;;;;1.73;0.85;;;;;;;36.66;24.35;98680.66;5036271;28;20167;-87
2023/07/29 09:11:45;;;;;;;2.67;1.08;;;;;;;37.22;24.28;98671.03;5035232;28;20193;-87
2023/07/29 09:14:14;;;;;;;6.93;1.00;;;;;;;37.47;23.81;98675.88;5034903;28;20697;-87
2023/07/29 09:16:41;;;;;;;4.15;1.17;;;;;;;37.68;23.48;98668.59;5035112;28;20188;-87
2023/07/29 09:19:08;;;;;;;3.53;1.10;;;;;;;37.42;24.75;98665.72;5034341;28;20201;-87
2023/07/29 09:21:33;;;;;;;4.22;1.10;;;;;;;37.73;22.98;98668.63;5035081;28;20185;-87
2023/07/29 09:24:07;;;;;;;1.38;0.90;;;;;;;37.99;22.42;98660.28;5035969;28;20186;-88
2023/07/29 09:26:34;;;;;;;1.52;0.82;;;;;;;37.95;23.08;98656.41;5035366;28;20166;-87
2023/07/29 09:29:01;;;;;;;3.40;0.95;;;;;;;37.99;22.87;98657.53;5035860;28;20209;-88
2023/07/29 09:31:29;;;;;;;5.10;1.20;;;;;;;38.08;23.87;98653.16;5036335;28;20182;-89
2023/07/29 09:34:03;;;;;;;1.73;0.90;;;;;;;37.98;23.44;98647.66;5035720;28;20178;-89
2023/07/29 09:36:32;;;;;;;6.20;1.40;;;;;;;37.86;23.05;98649.81;5015266;28;20236;-88
2023/07/29 09:38:58;;;;;;;2.30;0.70;;;;;;;37.98;22.98;98642.19;5014598;28;20231;-87
2023/07/29 09:41:25;;;;;;;3.95;1.02;;;;;;;38.13;23.66;98644.16;5014608;28;20218;-87
2023/07/29 09:44:01;;;;;;;1.75;0.90;;;;;;;37.92;23.41;98645.19;5018539;28;20205;-86
2023/07/29 09:46:37;;;;;;;1.83;0.88;;;;;;;36.94;24.07;98650.34;5014438;28;20179;-86
2023/07/29 09:49:06;;;;;;;1.70;0.70;;;;;;;36.01;24.15;98645.31;5015746;28;20218;-86
2023/07/29 09:51:36;;;;;;;2.92;1.00;;;;;;;35.63;25.03;98643.50;5030947;28;20628;-86
2023/07/29 09:54:03;;;;;;;1.90;1.10;;;;;;;36.42;25.15;98648.47;5033712;28;20212;-86
2023/07/29 09:56:28;;;;;;;3.65;1.02;;;;;;;36.62;23.77;98640.50;5035135;28;20213;-86
2023/07/29 09:58:57;;;;;;;1.50;0.65;;;;;;;35.94;24.15;98638.38;5035247;28;20230;-86
2023/07/29 10:01:24;;;;;;;3.47;1.27;;;;;;;36.37;23.92;98638.34;5034533;28;20230;-86
2023/07/29 10:03:49;;;;;;;2.08;0.80;;;;;;;36.46;24.21;98625.84;5033606;28;20182;-86
2023/07/29 10:06:15;;;;;;;2.13;0.88;;;;;;;36.76;24.18;98631.63;5034062;28;20201;-86
2023/07/29 10:08:42;;;;;;;1.50;0.82;;;;;;;37.42;23.64;98626.63;5034858;28;20175;-85
2023/07/29 10:11:09;;;;;;;1.73;0.98;;;;;;;37.30;23.40;98626.78;5034128;28;20182;-86
2023/07/29 10:13:37;;;;;;;2.10;0.70;;;;;;;37.13;22.69;98623.44;5033537;28;20225;-86
2023/07/29 10:16:04;;;;;;;1.98;1.00;;;;;;;37.78;22.72;98616.66;5033295;28;20558;-85
2023/07/29 10:18:33;;;;;;;6.05;1.27;;;;;;;37.55;23.14;98617.94;5016258;28;20210;-86
2023/07/29 10:21:00;;;;;;;10.80;2.60;;;;;;;37.85;21.85;98609.00;5014866;28;20317;-86
2023/07/29 10:23:31;;;;;;;5.95;1.10;;;;;;;37.61;23.17;98605.91;5033282;28;20209;-85
2023/07/29 10:26:05;;;;;;;2.80;1.10;;;;;;;38.00;22.65;98612.63;5034571;28;20175;-86
2023/07/29 10:28:34;;;;;;;3.13;1.20;;;;;;;37.73;21.72;98602.94;5033554;28;20270;-87
2023/07/29 10:31:04;;;;;;;4.70;0.70;;;;;;;37.72;22.51;98596.66;5034584;28;20596;-88
2023/07/29 10:33:32;;;;;;;2.53;0.85;;;;;;;37.47;22.41;98605.59;5033122;28;20194;-86
2023/07/29 10:35:59;;;;;;;3.13;0.95;;;;;;;37.58;22.42;98591.97;5033193;28;20178;-87
2023/07/29 10:38:25;;;;;;;2.97;0.75;;;;;;;37.54;21.61;98591.66;5032737;28;20279;-87
2023/07/29 10:40:56;;;;;;;1.33;0.60;;;;;;;38.16;21.84;98586.09;5032795;28;20688;-87
2023/07/29 10:43:31;;;;;;;1.70;0.85;;;;;;;38.26;22.36;98590.78;5032792;28;20172;-86
2023/07/29 10:45:57;;;;;;;1.45;0.70;;;;;;;38.85;22.62;98589.19;5033464;28;20519;-86
2023/07/29 10:48:35;;;;;;;1.50;0.60;;;;;;;39.05;20.11;98589.13;5033964;28;20186;-88
2023/07/29 10:51:26;;;;;;;1.55;0.80;;;;;;;38.87;20.34;98581.50;5034050;28;20252;-87
2023/07/29 10:53:54;;;;;;;1.52;0.60;;;;;;;38.58;21.14;98592.19;5032867;28;20186;-87
2023/07/29 10:56:35;;;;;;;2.22;0.80;;;;;;;39.15;20.98;98577.34;5034223;28;20206;-86
2023/07/29 10:59:13;;;;;;;0.73;0.43;;;;;;;39.14;20.93;98576.50;5034337;28;20283;-86
2023/07/29 11:01:40;;;;;;;1.38;0.65;;;;;;;39.17;21.65;98575.97;5032747;28;20238;-86
2023/07/29 11:04:20;;;;;;;1.65;0.60;;;;;;;39.26;21.04;98574.31;5033815;28;20178;-86
2023/07/29 11:07:22;;;;;;;2.47;0.95;;;;;;;39.50;20.08;98568.16;5032807;28;20658;-86
2023/07/29 11:09:48;;;;;;;1.40;0.60;;;;;;;39.50;20.28;98565.44;5032773;28;20173;-86
2023/07/29 11:12:40;;;;;;;2.58;0.80;;;;;;;39.09;19.91;98564.72;5032746;28;20182;-87
2023/07/29 11:15:19;;;;;;;1.45;0.73;;;;;;;39.60;20.28;98559.91;5033655;28;20207;-87
2023/07/29 11:17:53;;;;;;;0.90;0.57;;;;;;;39.76;19.93;98559.56;5034054;28;20194;-86
2023/07/29 11:20:21;;;;;;;2.40;0.57;;;;;;;39.12;19.40;98562.28;5033882;28;20170;-87
2023/07/29 11:22:47;;;;;;;4.18;1.05;;;;;;;38.84;19.49;98564.81;5032868;28;20236;-87
2023/07/29 11:25:14;;;;;;;3.50;0.85;;;;;;;39.27;20.17;98554.00;5033539;28;20190;-87
2023/07/29 11:27:40;;;;;;;1.52;0.70;;;;;;;39.50;21.04;98557.19;5033471;28;20185;-86
2023/07/29 11:30:08;;;;;;;3.72;0.90;;;;;;;39.45;19.54;98547.06;5033354;28;20174;-87
2023/07/29 11:32:35;;;;;;;1.52;0.75;;;;;;;38.61;20.69;98556.03;5033173;28;20182;-86
2023/07/29 11:35:05;;;;;;;1.20;0.60;;;;;;;38.75;20.37;98558.22;5033370;28;20185;-86
2023/07/29 11:37:30;;;;;;;1.50;0.73;;;;;;;38.62;20.54;98551.38;5033150;28;20217;-86